sensor_id;sensor_type;location;lat;lon;timestamp;P1;durP1;ratioP1;P2;durP2;ratioP2
50631;SDS011;49583;45.590;-122.498;2024-02-23T00:01:47;0.40;;;0.40;;
50631;SDS011;49583;45.590;-122.498;2024-02-23T00:04:00;1.50;;;0.40;;
50631;SDS011;49583;45.590;-122.498;2024-02-23T00:06:15;1.20;;;0.30;;
50631;SDS011;49583;45.590;-122.498;2024-02-23T00:10:59;0.50;;;0.30;;
50631;SDS011;49583;45.590;-122.498;2024-02-23T00:13:13;0.40;;;0.40;;
50631;SDS011;49583;45.590;-122.498;2024-02-23T00:15:37;0.30;;;0.30;;
50631;SDS011;49583;45.590;-122.498;2024-02-23T00:17:55;1.90;;;0.30;;
50631;SDS011;49583;45.590;-122.498;2024-02-23T00:20:08;0.30;;;0.30;;
50631;SDS011;49583;45.590;-122.498;2024-02-23T00:22:26;0.90;;;0.40;;
50631;SDS011;49583;45.590;-122.498;2024-02-23T00:24:39;0.40;;;0.40;;
50631;SDS011;49583;45.590;-122.498;2024-02-23T00:26:51;0.50;;;0.40;;
50631;SDS011;49583;45.590;-122.498;2024-02-23T00:29:05;0.70;;;0.40;;
50631;SDS011;49583;45.590;-122.498;2024-02-23T00:31:28;0.50;;;0.40;;
50631;SDS011;49583;45.590;-122.498;2024-02-23T00:33:44;0.30;;;0.30;;
50631;SDS011;49583;45.590;-122.498;2024-02-23T00:35:57;3.00;;;0.40;;
50631;SDS011;49583;45.590;-122.498;2024-02-23T00:38:19;1.20;;;0.40;;
50631;SDS011;49583;45.590;-122.498;2024-02-23T00:40:38;0.60;;;0.40;;
50631;SDS011;49583;45.590;-122.498;2024-02-23T00:42:55;1.80;;;0.50;;
50631;SDS011;49583;45.590;-122.498;2024-02-23T00:45:26;0.30;;;0.30;;
50631;SDS011;49583;45.590;-122.498;2024-02-23T00:47:39;0.40;;;0.40;;
50631;SDS011;49583;45.590;-122.498;2024-02-23T00:49:54;1.10;;;0.40;;
50631;SDS011;49583;45.590;-122.498;2024-02-23T00:52:10;0.60;;;0.40;;
50631;SDS011;49583;45.590;-122.498;2024-02-23T00:54:28;0.70;;;0.50;;
50631;SDS011;49583;45.590;-122.498;2024-02-23T00:56:41;0.60;;;0.40;;
50631;SDS011;49583;45.590;-122.498;2024-02-23T00:59:07;0.60;;;0.40;;
50631;SDS011;49583;45.590;-122.498;2024-02-23T01:01:21;1.40;;;0.40;;
50631;SDS011;49583;45.590;-122.498;2024-02-23T01:03:34;0.40;;;0.40;;
50631;SDS011;49583;45.590;-122.498;2024-02-23T01:06:08;0.80;;;0.50;;
50631;SDS011;49583;45.590;-122.498;2024-02-23T01:08:21;0.90;;;0.40;;
50631;SDS011;49583;45.590;-122.498;2024-02-23T01:10:43;0.90;;;0.40;;
50631;SDS011;49583;45.590;-122.498;2024-02-23T01:12:56;0.70;;;0.40;;
50631;SDS011;49583;45.590;-122.498;2024-02-23T01:15:22;0.70;;;0.30;;
50631;SDS011;49583;45.590;-122.498;2024-02-23T01:17:35;0.50;;;0.40;;
50631;SDS011;49583;45.590;-122.498;2024-02-23T01:19:51;2.80;;;0.50;;
50631;SDS011;49583;45.590;-122.498;2024-02-23T01:22:05;1.60;;;0.50;;
50631;SDS011;49583;45.590;-122.498;2024-02-23T01:24:17;2.90;;;0.60;;
50631;SDS011;49583;45.590;-122.498;2024-02-23T01:26:33;0.50;;;0.40;;
50631;SDS011;49583;45.590;-122.498;2024-02-23T01:28:49;0.50;;;0.50;;
50631;SDS011;49583;45.590;-122.498;2024-02-23T01:31:07;0.30;;;0.30;;
50631;SDS011;49583;45.590;-122.498;2024-02-23T01:33:24;0.30;;;0.30;;
50631;SDS011;49583;45.590;-122.498;2024-02-23T01:35:38;0.70;;;0.40;;
50631;SDS011;49583;45.590;-122.498;2024-02-23T01:37:52;1.10;;;0.40;;
50631;SDS011;49583;45.590;-122.498;2024-02-23T01:40:07;0.60;;;0.50;;
50631;SDS011;49583;45.590;-122.498;2024-02-23T01:42:41;2.90;;;0.40;;
50631;SDS011;49583;45.590;-122.498;2024-02-23T01:45:10;0.50;;;0.40;;
50631;SDS011;49583;45.590;-122.498;2024-02-23T01:47:23;0.50;;;0.50;;
50631;SDS011;49583;45.590;-122.498;2024-02-23T01:49:37;0.70;;;0.30;;
50631;SDS011;49583;45.590;-122.498;2024-02-23T01:51:51;0.50;;;0.40;;
50631;SDS011;49583;45.590;-122.498;2024-02-23T01:54:07;0.80;;;0.50;;
50631;SDS011;49583;45.590;-122.498;2024-02-23T01:56:32;1.50;;;0.60;;
50631;SDS011;49583;45.590;-122.498;2024-02-23T01:58:47;0.80;;;0.50;;
50631;SDS011;49583;45.590;-122.498;2024-02-23T02:01:01;1.40;;;0.40;;
50631;SDS011;49583;45.590;-122.498;2024-02-23T02:03:18;0.60;;;0.40;;
50631;SDS011;49583;45.590;-122.498;2024-02-23T02:05:34;0.80;;;0.60;;
50631;SDS011;49583;45.590;-122.498;2024-02-23T02:07:47;2.00;;;0.50;;
50631;SDS011;49583;45.590;-122.498;2024-02-23T02:10:08;4.00;;;0.60;;
50631;SDS011;49583;45.590;-122.498;2024-02-23T02:12:29;0.90;;;0.50;;
50631;SDS011;49583;45.590;-122.498;2024-02-23T02:14:45;0.50;;;0.50;;
50631;SDS011;49583;45.590;-122.498;2024-02-23T02:17:01;0.80;;;0.40;;
50631;SDS011;49583;45.590;-122.498;2024-02-23T02:19:26;2.60;;;0.40;;
50631;SDS011;49583;45.590;-122.498;2024-02-23T02:21:39;0.40;;;0.30;;
50631;SDS011;49583;45.590;-122.498;2024-02-23T02:23:56;0.60;;;0.40;;
50631;SDS011;49583;45.590;-122.498;2024-02-23T02:26:09;0.60;;;0.50;;
50631;SDS011;49583;45.590;-122.498;2024-02-23T02:28:22;0.30;;;0.30;;
50631;SDS011;49583;45.590;-122.498;2024-02-23T02:30:36;0.90;;;0.50;;
50631;SDS011;49583;45.590;-122.498;2024-02-23T02:32:58;2.40;;;0.40;;
50631;SDS011;49583;45.590;-122.498;2024-02-23T02:35:12;1.60;;;0.50;;
50631;SDS011;49583;45.590;-122.498;2024-02-23T02:37:25;0.50;;;0.50;;
50631;SDS011;49583;45.590;-122.498;2024-02-23T02:39:41;2.60;;;0.60;;
50631;SDS011;49583;45.590;-122.498;2024-02-23T02:41:54;3.90;;;0.70;;
50631;SDS011;49583;45.590;-122.498;2024-02-23T02:44:06;0.80;;;0.50;;
50631;SDS011;49583;45.590;-122.498;2024-02-23T02:46:21;1.70;;;0.70;;
50631;SDS011;49583;45.590;-122.498;2024-02-23T02:48:34;3.70;;;0.70;;
50631;SDS011;49583;45.590;-122.498;2024-02-23T02:50:50;7.30;;;0.70;;
50631;SDS011;49583;45.590;-122.498;2024-02-23T02:53:05;1.80;;;0.60;;
50631;SDS011;49583;45.590;-122.498;2024-02-23T02:55:40;2.10;;;0.70;;
50631;SDS011;49583;45.590;-122.498;2024-02-23T02:57:54;2.30;;;0.60;;
50631;SDS011;49583;45.590;-122.498;2024-02-23T03:00:09;1.90;;;0.80;;
50631;SDS011;49583;45.590;-122.498;2024-02-23T03:02:27;0.70;;;0.70;;
50631;SDS011;49583;45.590;-122.498;2024-02-23T03:04:53;4.20;;;0.50;;
50631;SDS011;49583;45.590;-122.498;2024-02-23T03:07:06;2.10;;;0.60;;
50631;SDS011;49583;45.590;-122.498;2024-02-23T03:09:19;1.50;;;0.80;;
50631;SDS011;49583;45.590;-122.498;2024-02-23T03:11:36;2.50;;;1.00;;
50631;SDS011;49583;45.590;-122.498;2024-02-23T03:13:49;4.20;;;0.70;;
50631;SDS011;49583;45.590;-122.498;2024-02-23T03:16:16;1.20;;;0.80;;
50631;SDS011;49583;45.590;-122.498;2024-02-23T03:18:40;1.90;;;1.10;;
50631;SDS011;49583;45.590;-122.498;2024-02-23T03:21:04;1.00;;;0.90;;
50631;SDS011;49583;45.590;-122.498;2024-02-23T03:23:22;3.90;;;1.10;;
50631;SDS011;49583;45.590;-122.498;2024-02-23T03:25:55;2.70;;;1.20;;
50631;SDS011;49583;45.590;-122.498;2024-02-23T03:28:11;1.80;;;1.20;;
50631;SDS011;49583;45.590;-122.498;2024-02-23T03:30:44;2.60;;;1.70;;
50631;SDS011;49583;45.590;-122.498;2024-02-23T03:32:57;5.40;;;2.00;;
50631;SDS011;49583;45.590;-122.498;2024-02-23T03:35:13;2.30;;;1.30;;
50631;SDS011;49583;45.590;-122.498;2024-02-23T03:37:29;4.70;;;1.80;;
50631;SDS011;49583;45.590;-122.498;2024-02-23T03:39:51;3.10;;;1.80;;
50631;SDS011;49583;45.590;-122.498;2024-02-23T03:42:04;2.50;;;1.60;;
50631;SDS011;49583;45.590;-122.498;2024-02-23T03:44:18;2.30;;;1.70;;
50631;SDS011;49583;45.590;-122.498;2024-02-23T03:46:31;2.30;;;1.60;;
50631;SDS011;49583;45.590;-122.498;2024-02-23T03:48:48;5.90;;;1.90;;
50631;SDS011;49583;45.590;-122.498;2024-02-23T03:51:21;3.40;;;1.10;;
50631;SDS011;49583;45.590;-122.498;2024-02-23T03:53:35;3.20;;;1.40;;
50631;SDS011;49583;45.590;-122.498;2024-02-23T03:55:48;1.10;;;0.90;;
50631;SDS011;49583;45.590;-122.498;2024-02-23T03:58:11;5.40;;;1.40;;
50631;SDS011;49583;45.590;-122.498;2024-02-23T04:00:46;2.00;;;1.10;;
50631;SDS011;49583;45.590;-122.498;2024-02-23T04:02:59;5.50;;;1.60;;
50631;SDS011;49583;45.590;-122.498;2024-02-23T04:05:22;3.80;;;0.90;;
50631;SDS011;49583;45.590;-122.498;2024-02-23T04:07:56;1.70;;;1.10;;
50631;SDS011;49583;45.590;-122.498;2024-02-23T04:10:19;1.10;;;0.90;;
50631;SDS011;49583;45.590;-122.498;2024-02-23T04:12:32;3.10;;;1.50;;
50631;SDS011;49583;45.590;-122.498;2024-02-23T04:15:06;4.40;;;1.30;;
50631;SDS011;49583;45.590;-122.498;2024-02-23T04:17:40;3.10;;;1.60;;
50631;SDS011;49583;45.590;-122.498;2024-02-23T04:19:57;4.80;;;1.70;;
50631;SDS011;49583;45.590;-122.498;2024-02-23T04:22:10;5.00;;;2.80;;
50631;SDS011;49583;45.590;-122.498;2024-02-23T04:24:23;6.00;;;3.70;;
50631;SDS011;49583;45.590;-122.498;2024-02-23T04:26:36;3.80;;;2.50;;
50631;SDS011;49583;45.590;-122.498;2024-02-23T04:28:49;2.30;;;1.60;;
50631;SDS011;49583;45.590;-122.498;2024-02-23T04:31:02;1.50;;;1.20;;
50631;SDS011;49583;45.590;-122.498;2024-02-23T04:33:15;1.70;;;1.10;;
50631;SDS011;49583;45.590;-122.498;2024-02-23T04:35:37;4.00;;;1.00;;
50631;SDS011;49583;45.590;-122.498;2024-02-23T04:37:59;1.40;;;1.00;;
50631;SDS011;49583;45.590;-122.498;2024-02-23T04:40:34;2.20;;;1.50;;
50631;SDS011;49583;45.590;-122.498;2024-02-23T04:42:57;1.60;;;1.00;;
50631;SDS011;49583;45.590;-122.498;2024-02-23T04:45:30;1.30;;;1.20;;
50631;SDS011;49583;45.590;-122.498;2024-02-23T04:47:53;2.40;;;1.30;;
50631;SDS011;49583;45.590;-122.498;2024-02-23T04:50:10;3.60;;;1.10;;
50631;SDS011;49583;45.590;-122.498;2024-02-23T04:52:24;3.70;;;1.00;;
50631;SDS011;49583;45.590;-122.498;2024-02-23T04:54:46;3.10;;;1.30;;
50631;SDS011;49583;45.590;-122.498;2024-02-23T04:56:59;3.30;;;1.10;;
50631;SDS011;49583;45.590;-122.498;2024-02-23T04:59:22;3.40;;;1.30;;
50631;SDS011;49583;45.590;-122.498;2024-02-23T05:01:37;2.00;;;1.20;;
50631;SDS011;49583;45.590;-122.498;2024-02-23T05:04:00;3.50;;;1.50;;
50631;SDS011;49583;45.590;-122.498;2024-02-23T05:06:17;1.40;;;1.00;;
50631;SDS011;49583;45.590;-122.498;2024-02-23T05:08:34;2.90;;;1.00;;
50631;SDS011;49583;45.590;-122.498;2024-02-23T05:10:48;1.30;;;0.90;;
50631;SDS011;49583;45.590;-122.498;2024-02-23T05:13:04;3.60;;;1.00;;
50631;SDS011;49583;45.590;-122.498;2024-02-23T05:15:29;1.20;;;0.80;;
50631;SDS011;49583;45.590;-122.498;2024-02-23T05:17:47;1.50;;;1.00;;
50631;SDS011;49583;45.590;-122.498;2024-02-23T05:20:00;2.00;;;0.90;;
50631;SDS011;49583;45.590;-122.498;2024-02-23T05:22:19;4.40;;;1.00;;
50631;SDS011;49583;45.590;-122.498;2024-02-23T05:24:53;2.90;;;1.00;;
50631;SDS011;49583;45.590;-122.498;2024-02-23T05:27:06;1.00;;;0.90;;
50631;SDS011;49583;45.590;-122.498;2024-02-23T05:29:19;2.80;;;0.90;;
50631;SDS011;49583;45.590;-122.498;2024-02-23T05:33:58;3.80;;;2.40;;
50631;SDS011;49583;45.590;-122.498;2024-02-23T05:36:11;2.30;;;1.70;;
50631;SDS011;49583;45.590;-122.498;2024-02-23T05:38:24;3.50;;;1.50;;
50631;SDS011;49583;45.590;-122.498;2024-02-23T05:40:38;2.20;;;1.00;;
50631;SDS011;49583;45.590;-122.498;2024-02-23T05:42:51;0.90;;;0.80;;
50631;SDS011;49583;45.590;-122.498;2024-02-23T05:45:04;2.20;;;1.30;;
50631;SDS011;49583;45.590;-122.498;2024-02-23T05:47:18;3.80;;;1.80;;
50631;SDS011;49583;45.590;-122.498;2024-02-23T05:49:34;3.80;;;1.30;;
50631;SDS011;49583;45.590;-122.498;2024-02-23T05:51:47;2.00;;;1.80;;
50631;SDS011;49583;45.590;-122.498;2024-02-23T05:54:03;2.00;;;1.10;;
50631;SDS011;49583;45.590;-122.498;2024-02-23T05:58:35;3.10;;;1.30;;
50631;SDS011;49583;45.590;-122.498;2024-02-23T06:00:57;4.60;;;1.30;;
50631;SDS011;49583;45.590;-122.498;2024-02-23T06:03:10;4.10;;;1.20;;
50631;SDS011;49583;45.590;-122.498;2024-02-23T06:05:24;1.40;;;1.10;;
50631;SDS011;49583;45.590;-122.498;2024-02-23T06:07:37;4.10;;;1.70;;
50631;SDS011;49583;45.590;-122.498;2024-02-23T06:09:50;2.60;;;1.40;;
50631;SDS011;49583;45.590;-122.498;2024-02-23T06:12:12;1.50;;;1.30;;
50631;SDS011;49583;45.590;-122.498;2024-02-23T06:14:47;1.60;;;1.30;;
50631;SDS011;49583;45.590;-122.498;2024-02-23T06:17:04;3.00;;;1.50;;
50631;SDS011;49583;45.590;-122.498;2024-02-23T06:19:17;2.00;;;1.40;;
50631;SDS011;49583;45.590;-122.498;2024-02-23T06:21:30;2.60;;;1.90;;
50631;SDS011;49583;45.590;-122.498;2024-02-23T06:23:43;4.30;;;2.20;;
50631;SDS011;49583;45.590;-122.498;2024-02-23T06:25:56;2.10;;;1.80;;
50631;SDS011;49583;45.590;-122.498;2024-02-23T06:28:19;3.80;;;2.20;;
50631;SDS011;49583;45.590;-122.498;2024-02-23T06:30:32;3.10;;;2.00;;
50631;SDS011;49583;45.590;-122.498;2024-02-23T06:32:48;2.30;;;2.00;;
50631;SDS011;49583;45.590;-122.498;2024-02-23T06:35:05;3.70;;;2.20;;
50631;SDS011;49583;45.590;-122.498;2024-02-23T06:37:20;2.90;;;2.30;;
50631;SDS011;49583;45.590;-122.498;2024-02-23T06:39:52;3.20;;;2.70;;
50631;SDS011;49583;45.590;-122.498;2024-02-23T06:42:25;4.50;;;2.70;;
50631;SDS011;49583;45.590;-122.498;2024-02-23T06:44:58;4.20;;;3.00;;
50631;SDS011;49583;45.590;-122.498;2024-02-23T06:47:14;4.10;;;3.20;;
50631;SDS011;49583;45.590;-122.498;2024-02-23T06:49:37;9.80;;;3.70;;
50631;SDS011;49583;45.590;-122.498;2024-02-23T06:51:51;9.40;;;3.80;;
50631;SDS011;49583;45.590;-122.498;2024-02-23T06:54:25;7.30;;;3.90;;
50631;SDS011;49583;45.590;-122.498;2024-02-23T06:56:48;5.30;;;3.20;;
50631;SDS011;49583;45.590;-122.498;2024-02-23T06:59:05;6.70;;;3.40;;
50631;SDS011;49583;45.590;-122.498;2024-02-23T07:01:17;5.10;;;3.40;;
50631;SDS011;49583;45.590;-122.498;2024-02-23T07:03:32;4.80;;;3.00;;
50631;SDS011;49583;45.590;-122.498;2024-02-23T07:05:45;6.00;;;2.60;;
50631;SDS011;49583;45.590;-122.498;2024-02-23T07:07:59;4.20;;;2.50;;
50631;SDS011;49583;45.590;-122.498;2024-02-23T07:10:11;5.10;;;2.30;;
50631;SDS011;49583;45.590;-122.498;2024-02-23T07:12:25;2.50;;;2.20;;
50631;SDS011;49583;45.590;-122.498;2024-02-23T07:14:38;3.10;;;2.50;;
50631;SDS011;49583;45.590;-122.498;2024-02-23T07:17:01;4.80;;;2.10;;
50631;SDS011;49583;45.590;-122.498;2024-02-23T07:19:16;2.50;;;2.10;;
50631;SDS011;49583;45.590;-122.498;2024-02-23T07:21:29;3.30;;;2.00;;
50631;SDS011;49583;45.590;-122.498;2024-02-23T07:23:54;3.10;;;2.00;;
50631;SDS011;49583;45.590;-122.498;2024-02-23T07:26:07;3.10;;;1.90;;
50631;SDS011;49583;45.590;-122.498;2024-02-23T07:28:24;3.00;;;2.00;;
50631;SDS011;49583;45.590;-122.498;2024-02-23T07:30:48;3.00;;;2.40;;
50631;SDS011;49583;45.590;-122.498;2024-02-23T07:33:05;2.90;;;2.10;;
50631;SDS011;49583;45.590;-122.498;2024-02-23T07:35:18;4.50;;;2.10;;
50631;SDS011;49583;45.590;-122.498;2024-02-23T07:37:42;2.60;;;1.90;;
50631;SDS011;49583;45.590;-122.498;2024-02-23T07:39:55;3.30;;;2.00;;
50631;SDS011;49583;45.590;-122.498;2024-02-23T07:42:08;3.00;;;2.00;;
50631;SDS011;49583;45.590;-122.498;2024-02-23T07:44:39;2.40;;;1.70;;
50631;SDS011;49583;45.590;-122.498;2024-02-23T07:47:02;3.00;;;2.20;;
50631;SDS011;49583;45.590;-122.498;2024-02-23T07:49:16;2.60;;;2.00;;
50631;SDS011;49583;45.590;-122.498;2024-02-23T07:51:49;2.60;;;1.90;;
50631;SDS011;49583;45.590;-122.498;2024-02-23T07:54:06;3.30;;;2.00;;
50631;SDS011;49583;45.590;-122.498;2024-02-23T07:56:18;5.30;;;2.20;;
50631;SDS011;49583;45.590;-122.498;2024-02-23T07:58:51;5.20;;;2.80;;
50631;SDS011;49583;45.590;-122.498;2024-02-23T08:01:05;3.70;;;2.50;;
50631;SDS011;49583;45.590;-122.498;2024-02-23T08:03:18;4.40;;;1.90;;
50631;SDS011;49583;45.590;-122.498;2024-02-23T08:07:53;2.80;;;2.00;;
50631;SDS011;49583;45.590;-122.498;2024-02-23T08:10:10;4.50;;;2.00;;
50631;SDS011;49583;45.590;-122.498;2024-02-23T08:12:23;3.90;;;2.20;;
50631;SDS011;49583;45.590;-122.498;2024-02-23T08:14:36;5.00;;;2.20;;
50631;SDS011;49583;45.590;-122.498;2024-02-23T08:16:59;5.50;;;2.80;;
50631;SDS011;49583;45.590;-122.498;2024-02-23T08:19:26;4.20;;;1.90;;
50631;SDS011;49583;45.590;-122.498;2024-02-23T08:21:48;3.00;;;2.00;;
50631;SDS011;49583;45.590;-122.498;2024-02-23T08:24:05;4.20;;;2.50;;
50631;SDS011;49583;45.590;-122.498;2024-02-23T08:26:18;3.40;;;2.50;;
50631;SDS011;49583;45.590;-122.498;2024-02-23T08:28:31;4.20;;;2.50;;
50631;SDS011;49583;45.590;-122.498;2024-02-23T08:31:04;3.10;;;2.40;;
50631;SDS011;49583;45.590;-122.498;2024-02-23T08:33:27;3.30;;;2.60;;
50631;SDS011;49583;45.590;-122.498;2024-02-23T08:35:50;2.90;;;2.50;;
50631;SDS011;49583;45.590;-122.498;2024-02-23T08:38:12;3.60;;;2.00;;
50631;SDS011;49583;45.590;-122.498;2024-02-23T08:40:28;3.10;;;2.10;;
50631;SDS011;49583;45.590;-122.498;2024-02-23T08:42:52;4.80;;;2.60;;
50631;SDS011;49583;45.590;-122.498;2024-02-23T08:45:05;7.10;;;2.70;;
50631;SDS011;49583;45.590;-122.498;2024-02-23T08:47:30;2.50;;;2.10;;
50631;SDS011;49583;45.590;-122.498;2024-02-23T08:50:04;6.30;;;2.80;;
50631;SDS011;49583;45.590;-122.498;2024-02-23T08:52:21;2.40;;;2.20;;
50631;SDS011;49583;45.590;-122.498;2024-02-23T08:54:44;3.50;;;2.10;;
50631;SDS011;49583;45.590;-122.498;2024-02-23T08:57:18;2.80;;;1.90;;
50631;SDS011;49583;45.590;-122.498;2024-02-23T09:01:53;3.70;;;2.00;;
50631;SDS011;49583;45.590;-122.498;2024-02-23T09:04:10;4.20;;;2.20;;
50631;SDS011;49583;45.590;-122.498;2024-02-23T09:06:33;2.50;;;1.80;;
50631;SDS011;49583;45.590;-122.498;2024-02-23T09:08:57;4.40;;;2.50;;
50631;SDS011;49583;45.590;-122.498;2024-02-23T09:11:11;2.70;;;1.90;;
50631;SDS011;49583;45.590;-122.498;2024-02-23T09:13:23;4.00;;;2.40;;
50631;SDS011;49583;45.590;-122.498;2024-02-23T09:15:37;4.40;;;2.90;;
50631;SDS011;49583;45.590;-122.498;2024-02-23T09:18:03;3.10;;;2.40;;
50631;SDS011;49583;45.590;-122.498;2024-02-23T09:20:16;6.10;;;2.30;;
50631;SDS011;49583;45.590;-122.498;2024-02-23T09:22:40;3.30;;;2.30;;
50631;SDS011;49583;45.590;-122.498;2024-02-23T09:24:53;2.80;;;2.30;;
50631;SDS011;49583;45.590;-122.498;2024-02-23T09:27:06;3.40;;;2.50;;
50631;SDS011;49583;45.590;-122.498;2024-02-23T09:29:19;4.40;;;2.30;;
50631;SDS011;49583;45.590;-122.498;2024-02-23T09:31:32;3.60;;;2.40;;
50631;SDS011;49583;45.590;-122.498;2024-02-23T09:33:59;4.70;;;2.60;;
50631;SDS011;49583;45.590;-122.498;2024-02-23T09:36:32;3.90;;;2.90;;
50631;SDS011;49583;45.590;-122.498;2024-02-23T09:38:48;2.90;;;2.20;;
50631;SDS011;49583;45.590;-122.498;2024-02-23T09:41:01;3.90;;;3.10;;
50631;SDS011;49583;45.590;-122.498;2024-02-23T09:43:25;5.60;;;2.70;;
50631;SDS011;49583;45.590;-122.498;2024-02-23T09:45:45;4.40;;;2.50;;
50631;SDS011;49583;45.590;-122.498;2024-02-23T09:48:13;4.40;;;2.50;;
50631;SDS011;49583;45.590;-122.498;2024-02-23T09:50:28;4.40;;;2.50;;
50631;SDS011;49583;45.590;-122.498;2024-02-23T09:53:03;3.00;;;2.70;;
50631;SDS011;49583;45.590;-122.498;2024-02-23T09:55:38;3.20;;;2.20;;
50631;SDS011;49583;45.590;-122.498;2024-02-23T09:57:54;2.70;;;2.00;;
50631;SDS011;49583;45.590;-122.498;2024-02-23T10:00:29;3.10;;;2.20;;
50631;SDS011;49583;45.590;-122.498;2024-02-23T10:02:43;3.10;;;2.20;;
50631;SDS011;49583;45.590;-122.498;2024-02-23T10:04:57;2.90;;;2.30;;
50631;SDS011;49583;45.590;-122.498;2024-02-23T10:07:31;3.80;;;2.40;;
50631;SDS011;49583;45.590;-122.498;2024-02-23T10:09:44;2.80;;;2.30;;
50631;SDS011;49583;45.590;-122.498;2024-02-23T10:12:07;3.30;;;2.20;;
50631;SDS011;49583;45.590;-122.498;2024-02-23T10:14:20;2.90;;;1.80;;
50631;SDS011;49583;45.590;-122.498;2024-02-23T10:16:33;2.40;;;1.60;;
50631;SDS011;49583;45.590;-122.498;2024-02-23T10:18:46;2.20;;;1.80;;
50631;SDS011;49583;45.590;-122.498;2024-02-23T10:20:59;2.40;;;1.90;;
50631;SDS011;49583;45.590;-122.498;2024-02-23T10:23:12;2.60;;;2.10;;
50631;SDS011;49583;45.590;-122.498;2024-02-23T10:25:46;2.90;;;2.00;;
50631;SDS011;49583;45.590;-122.498;2024-02-23T10:28:19;3.60;;;1.90;;
50631;SDS011;49583;45.590;-122.498;2024-02-23T10:30:32;2.30;;;1.80;;
50631;SDS011;49583;45.590;-122.498;2024-02-23T10:32:46;4.00;;;1.90;;
50631;SDS011;49583;45.590;-122.498;2024-02-23T10:35:00;2.20;;;2.00;;
50631;SDS011;49583;45.590;-122.498;2024-02-23T10:37:36;2.40;;;1.90;;
50631;SDS011;49583;45.590;-122.498;2024-02-23T10:39:50;2.20;;;2.00;;
50631;SDS011;49583;45.590;-122.498;2024-02-23T10:42:27;1.90;;;1.50;;
50631;SDS011;49583;45.590;-122.498;2024-02-23T10:44:44;3.10;;;2.50;;
50631;SDS011;49583;45.590;-122.498;2024-02-23T10:47:06;5.30;;;2.60;;
50631;SDS011;49583;45.590;-122.498;2024-02-23T10:49:41;2.80;;;2.00;;
50631;SDS011;49583;45.590;-122.498;2024-02-23T10:52:15;2.30;;;2.00;;
50631;SDS011;49583;45.590;-122.498;2024-02-23T10:54:31;3.20;;;1.90;;
50631;SDS011;49583;45.590;-122.498;2024-02-23T10:56:46;4.80;;;2.20;;
50631;SDS011;49583;45.590;-122.498;2024-02-23T10:59:00;2.60;;;1.80;;
50631;SDS011;49583;45.590;-122.498;2024-02-23T11:01:15;2.90;;;2.10;;
50631;SDS011;49583;45.590;-122.498;2024-02-23T11:03:30;2.50;;;2.00;;
50631;SDS011;49583;45.590;-122.498;2024-02-23T11:05:49;3.80;;;2.70;;
50631;SDS011;49583;45.590;-122.498;2024-02-23T11:08:24;2.80;;;2.30;;
50631;SDS011;49583;45.590;-122.498;2024-02-23T11:10:51;2.50;;;2.30;;
50631;SDS011;49583;45.590;-122.498;2024-02-23T11:13:13;2.50;;;2.30;;
50631;SDS011;49583;45.590;-122.498;2024-02-23T11:15:30;2.70;;;2.40;;
50631;SDS011;49583;45.590;-122.498;2024-02-23T11:20:42;4.20;;;2.20;;
50631;SDS011;49583;45.590;-122.498;2024-02-23T11:23:23;2.40;;;2.10;;
50631;SDS011;49583;45.590;-122.498;2024-02-23T11:26:09;3.50;;;1.90;;
50631;SDS011;49583;45.590;-122.498;2024-02-23T11:28:46;3.00;;;2.20;;
50631;SDS011;49583;45.590;-122.498;2024-02-23T11:31:15;2.80;;;1.80;;
50631;SDS011;49583;45.590;-122.498;2024-02-23T11:33:53;4.00;;;2.40;;
50631;SDS011;49583;45.590;-122.498;2024-02-23T11:36:29;3.80;;;2.50;;
50631;SDS011;49583;45.590;-122.498;2024-02-23T11:38:43;4.60;;;1.90;;
50631;SDS011;49583;45.590;-122.498;2024-02-23T11:40:56;2.10;;;1.70;;
50631;SDS011;49583;45.590;-122.498;2024-02-23T11:43:29;2.80;;;2.10;;
50631;SDS011;49583;45.590;-122.498;2024-02-23T11:48:48;2.80;;;2.00;;
50631;SDS011;49583;45.590;-122.498;2024-02-23T11:51:13;2.60;;;2.40;;
50631;SDS011;49583;45.590;-122.498;2024-02-23T11:53:46;2.40;;;1.90;;
50631;SDS011;49583;45.590;-122.498;2024-02-23T11:56:03;2.70;;;1.90;;
50631;SDS011;49583;45.590;-122.498;2024-02-23T11:58:17;2.40;;;2.20;;
50631;SDS011;49583;45.590;-122.498;2024-02-23T12:00:40;6.20;;;1.90;;
50631;SDS011;49583;45.590;-122.498;2024-02-23T12:02:54;2.40;;;2.20;;
50631;SDS011;49583;45.590;-122.498;2024-02-23T12:05:27;3.70;;;2.10;;
50631;SDS011;49583;45.590;-122.498;2024-02-23T12:07:40;3.80;;;2.00;;
50631;SDS011;49583;45.590;-122.498;2024-02-23T12:10:05;1.60;;;1.50;;
50631;SDS011;49583;45.590;-122.498;2024-02-23T12:12:31;2.90;;;2.30;;
50631;SDS011;49583;45.590;-122.498;2024-02-23T12:14:44;2.80;;;2.10;;
50631;SDS011;49583;45.590;-122.498;2024-02-23T12:16:59;2.40;;;1.70;;
50631;SDS011;49583;45.590;-122.498;2024-02-23T12:19:34;2.40;;;2.00;;
50631;SDS011;49583;45.590;-122.498;2024-02-23T12:22:02;2.40;;;1.70;;
50631;SDS011;49583;45.590;-122.498;2024-02-23T12:24:36;2.90;;;1.90;;
50631;SDS011;49583;45.590;-122.498;2024-02-23T12:27:10;2.30;;;2.00;;
50631;SDS011;49583;45.590;-122.498;2024-02-23T12:29:29;2.60;;;2.20;;
50631;SDS011;49583;45.590;-122.498;2024-02-23T12:32:01;2.70;;;2.10;;
50631;SDS011;49583;45.590;-122.498;2024-02-23T12:34:24;2.60;;;1.90;;
50631;SDS011;49583;45.590;-122.498;2024-02-23T12:36:38;2.00;;;1.70;;
50631;SDS011;49583;45.590;-122.498;2024-02-23T12:38:57;2.60;;;2.00;;
50631;SDS011;49583;45.590;-122.498;2024-02-23T12:41:30;3.20;;;2.10;;
50631;SDS011;49583;45.590;-122.498;2024-02-23T12:44:04;3.40;;;2.00;;
50631;SDS011;49583;45.590;-122.498;2024-02-23T12:46:28;3.90;;;1.70;;
50631;SDS011;49583;45.590;-122.498;2024-02-23T12:49:02;2.20;;;2.00;;
50631;SDS011;49583;45.590;-122.498;2024-02-23T12:51:26;2.40;;;2.10;;
50631;SDS011;49583;45.590;-122.498;2024-02-23T12:53:59;3.10;;;2.40;;
50631;SDS011;49583;45.590;-122.498;2024-02-23T12:56:13;2.90;;;2.40;;
50631;SDS011;49583;45.590;-122.498;2024-02-23T12:58:37;2.60;;;2.40;;
50631;SDS011;49583;45.590;-122.498;2024-02-23T13:00:55;6.20;;;3.40;;
50631;SDS011;49583;45.590;-122.498;2024-02-23T13:03:09;3.00;;;2.10;;
50631;SDS011;49583;45.590;-122.498;2024-02-23T13:05:42;1.80;;;1.70;;
50631;SDS011;49583;45.590;-122.498;2024-02-23T13:08:07;2.20;;;2.00;;
50631;SDS011;49583;45.590;-122.498;2024-02-23T13:10:40;2.90;;;2.10;;
50631;SDS011;49583;45.590;-122.498;2024-02-23T13:12:54;3.10;;;2.20;;
50631;SDS011;49583;45.590;-122.498;2024-02-23T13:15:27;3.50;;;2.40;;
50631;SDS011;49583;45.590;-122.498;2024-02-23T13:17:59;3.50;;;2.40;;
50631;SDS011;49583;45.590;-122.498;2024-02-23T13:20:13;3.60;;;2.50;;
50631;SDS011;49583;45.590;-122.498;2024-02-23T13:22:49;4.00;;;2.20;;
50631;SDS011;49583;45.590;-122.498;2024-02-23T13:25:14;6.70;;;2.50;;
50631;SDS011;49583;45.590;-122.498;2024-02-23T13:27:31;4.30;;;3.10;;
50631;SDS011;49583;45.590;-122.498;2024-02-23T13:30:05;7.60;;;2.90;;
50631;SDS011;49583;45.590;-122.498;2024-02-23T13:32:29;6.80;;;3.20;;
50631;SDS011;49583;45.590;-122.498;2024-02-23T13:35:02;7.80;;;3.50;;
50631;SDS011;49583;45.590;-122.498;2024-02-23T13:37:26;4.30;;;3.60;;
50631;SDS011;49583;45.590;-122.498;2024-02-23T13:39:42;4.90;;;3.30;;
50631;SDS011;49583;45.590;-122.498;2024-02-23T13:42:16;6.00;;;3.30;;
50631;SDS011;49583;45.590;-122.498;2024-02-23T13:44:29;4.70;;;3.50;;